createdAt,value
2023-02-11T00:00:11.142Z,102388.22
2023-02-11T00:00:40.049Z,102389.13
2023-02-11T00:01:13.637Z,102375.75
2023-02-11T00:01:29.558Z,102391.69
2023-02-11T00:01:42.220Z,102390.81
2023-02-11T00:01:54.959Z,102384.69
2023-02-11T00:02:08.339Z,102394.38
2023-02-11T00:02:21.125Z,102385.56
2023-02-11T00:02:34.331Z,102384.75
2023-02-11T00:02:48.294Z,102382.06
2023-02-11T00:03:01.091Z,102388.25
2023-02-11T00:03:13.843Z,102386.50
2023-02-11T00:03:26.738Z,102390.91
2023-02-11T00:03:39.783Z,102387.34
2023-02-11T00:03:52.629Z,102393.50
2023-02-11T00:04:06.490Z,102380.38
2023-02-11T00:04:20.183Z,102387.34
2023-02-11T00:04:32.891Z,102391.72
2023-02-11T00:04:45.528Z,102386.44
2023-02-11T00:04:58.225Z,102378.47
2023-02-11T00:05:11.139Z,102381.97
2023-02-11T00:05:24.123Z,102378.47
2023-02-11T00:05:36.794Z,102382.91
2023-02-11T00:05:58.765Z,102374.16
2023-02-11T00:06:12.021Z,102375.00
2023-02-11T00:06:25.614Z,102382.91
2023-02-11T00:06:38.317Z,102375.91
2023-02-11T00:06:51.006Z,102377.63
2023-02-11T00:07:03.715Z,102374.19
2023-02-11T00:07:16.379Z,102367.97
2023-02-11T00:07:30.438Z,102367.97
2023-02-11T00:07:43.230Z,102364.41
2023-02-11T00:07:55.921Z,102369.72
2023-02-11T00:08:08.600Z,102365.31
2023-02-11T00:08:21.260Z,102365.31
2023-02-11T00:08:33.895Z,102359.13
2023-02-11T00:08:47.843Z,102360.88
2023-02-11T00:09:01.257Z,102366.16
2023-02-11T00:09:14.315Z,102369.72
2023-02-11T00:09:27.073Z,102368.84
2023-02-11T00:09:39.790Z,102367.97
2023-02-11T00:09:52.658Z,102361.03
2023-02-11T00:10:07.891Z,102359.22
2023-02-11T00:10:21.644Z,102367.97
2023-02-11T00:10:35.745Z,102359.09
2023-02-11T00:10:52.233Z,102351.13
2023-02-11T00:11:05.578Z,102352.06
2023-02-11T00:11:20.108Z,102353.81
2023-02-11T00:11:34.277Z,102349.41
2023-02-11T00:11:46.978Z,102352.97
2023-02-11T00:11:59.684Z,102347.66
2023-02-11T00:12:12.402Z,102349.47
2023-02-11T00:12:25.606Z,102327.63
2023-02-11T00:12:38.691Z,102345.03
2023-02-11T00:12:51.412Z,102352.09
2023-02-11T00:13:05.369Z,102349.47
2023-02-11T00:13:18.028Z,102349.47
2023-02-11T00:13:30.683Z,102348.53
2023-02-11T00:13:45.045Z,102352.97
2023-02-11T00:13:58.347Z,102362.69
2023-02-11T00:14:11.844Z,102349.41
2023-02-11T00:14:25.646Z,102352.09
2023-02-11T00:14:38.413Z,102355.59
2023-02-11T00:14:51.224Z,102357.38
2023-02-11T00:15:04.354Z,102350.34
2023-02-11T00:15:17.267Z,102348.63
2023-02-11T00:15:29.927Z,102359.19
2023-02-11T00:15:43.610Z,102354.78
2023-02-11T00:15:56.589Z,102359.22
2023-02-11T00:16:10.752Z,102360.94
2023-02-11T00:16:23.732Z,102360.94
2023-02-11T00:16:36.669Z,102362.69
2023-02-11T00:16:50.726Z,102360.06
2023-02-11T00:17:03.452Z,102355.63
2023-02-11T00:17:16.466Z,102359.19
2023-02-11T00:17:29.207Z,102360.06
2023-02-11T00:17:41.911Z,102361.81
2023-02-11T00:17:54.697Z,102353.19
2023-02-11T00:18:07.466Z,102368.88
2023-02-11T00:18:21.112Z,102357.44
2023-02-11T00:18:33.880Z,102368.88
2023-02-11T00:18:47.048Z,102372.44
2023-02-11T00:19:00.002Z,102349.72
2023-02-11T00:19:12.697Z,102371.53
2023-02-11T00:19:26.410Z,102374.19
2023-02-11T00:19:39.984Z,102375.09
2023-02-11T00:19:53.494Z,102366.31
2023-02-11T00:20:08.298Z,102368.06
2023-02-11T00:20:21.339Z,102370.69
2023-02-11T00:20:33.945Z,102361.00
2023-02-11T00:20:47.994Z,102360.06
2023-02-11T00:21:05.590Z,102368.84
2023-02-11T00:21:21.376Z,102369.72
2023-02-11T00:21:34.784Z,102376.75
2023-02-11T00:21:47.501Z,102361.69
2023-02-11T00:22:00.226Z,102374.03
2023-02-11T00:22:12.926Z,102373.16
2023-02-11T00:22:26.670Z,102375.81
2023-02-11T00:22:39.387Z,102368.75
2023-02-11T00:22:52.178Z,102380.22
2023-02-11T00:23:05.104Z,102373.34
2023-02-11T00:23:17.862Z,102375.00
2023-02-11T00:23:32.413Z,102392.66
2023-02-11T00:23:46.199Z,102390.00
2023-02-11T00:24:00.302Z,102390.00
2023-02-11T00:24:13.086Z,102386.50
2023-02-11T00:24:25.791Z,102387.34
2023-02-11T00:24:39.732Z,102390.84
2023-02-11T00:24:52.474Z,102387.34
2023-02-11T00:25:05.893Z,102389.16
2023-02-11T00:25:18.619Z,102382.91
2023-02-11T00:25:31.880Z,102383.78
2023-02-11T00:25:46.065Z,102382.13
2023-02-11T00:25:58.798Z,102387.38
2023-02-11T00:26:17.372Z,102382.91
2023-02-11T00:26:32.182Z,102373.41
2023-02-11T00:26:45.122Z,102379.34
2023-02-11T00:27:00.753Z,102394.38
2023-02-11T00:27:13.428Z,102391.72
2023-02-11T00:27:26.262Z,102375.97
2023-02-11T00:27:38.986Z,102383.78
2023-02-11T00:27:52.707Z,102378.47
2023-02-11T00:28:05.759Z,102386.44
2023-02-11T00:28:18.540Z,102378.47
2023-02-11T00:28:32.430Z,102374.09
2023-02-11T00:28:46.270Z,102373.19
2023-02-11T00:29:00.966Z,102374.94
2023-02-11T00:29:13.828Z,102371.34
2023-02-11T00:29:26.560Z,102363.50
2023-02-11T00:29:40.027Z,102374.97
2023-02-11T00:29:52.722Z,102372.31
2023-02-11T00:30:06.172Z,102380.28
2023-02-11T00:30:20.021Z,102374.94
2023-02-11T00:30:32.924Z,102371.41
2023-02-11T00:30:45.835Z,102373.28
2023-02-11T00:30:59.328Z,102378.47
2023-02-11T00:31:12.579Z,102372.19
2023-02-11T00:31:26.263Z,102371.22
2023-02-11T00:31:40.234Z,102378.22
2023-02-11T00:31:53.037Z,102377.41
2023-02-11T00:32:06.525Z,102373.88
2023-02-11T00:32:19.261Z,102377.41
2023-02-11T00:32:32.028Z,102358.22
2023-02-11T00:32:45.089Z,102373.81
2023-02-11T00:32:57.783Z,102368.72
2023-02-11T00:33:11.479Z,102374.53
2023-02-11T00:33:24.862Z,102372.00
2023-02-11T00:33:37.817Z,102369.41
2023-02-11T00:33:51.060Z,102377.34
2023-02-11T00:34:03.762Z,102363.44
2023-02-11T00:34:17.701Z,102379.97
2023-02-11T00:34:30.417Z,102374.72
2023-02-11T00:34:43.121Z,102375.50
2023-02-11T00:34:55.863Z,102366.81
2023-02-11T00:35:08.714Z,102370.22
2023-02-11T00:35:21.421Z,102372.03
2023-02-11T00:35:34.132Z,102379.97
2023-02-11T00:35:46.829Z,102373.03
2023-02-11T00:36:05.840Z,102362.41
2023-02-11T00:36:20.778Z,102350.28
2023-02-11T00:36:33.576Z,102351.94
2023-02-11T00:36:46.362Z,102355.41
2023-02-11T00:36:59.358Z,102358.06
2023-02-11T00:37:13.641Z,102352.75
2023-02-11T00:37:27.450Z,102360.69
2023-02-11T00:37:40.230Z,102351.81
2023-02-11T00:37:53.762Z,102354.50
2023-02-11T00:38:06.509Z,102351.00
2023-02-11T00:38:19.424Z,102341.47
2023-02-11T00:38:32.172Z,102340.66
2023-02-11T00:38:45.678Z,102355.44
2023-02-11T00:39:00.251Z,102343.91
2023-02-11T00:39:13.085Z,102350.09
2023-02-11T00:39:26.049Z,102347.47
2023-02-11T00:39:38.779Z,102348.34
2023-02-11T00:39:51.877Z,102354.44
2023-02-11T00:40:06.715Z,102349.19
2023-02-11T00:40:19.819Z,102353.59
2023-02-11T00:40:33.664Z,102348.28
2023-02-11T00:40:47.790Z,102341.13
2023-02-11T00:41:00.536Z,102333.19
2023-02-11T00:41:15.030Z,102335.84
2023-02-11T00:41:27.818Z,102336.78
2023-02-11T00:41:40.572Z,102322.03
2023-02-11T00:41:54.350Z,102335.94
2023-02-11T00:42:07.024Z,102333.28
2023-02-11T00:42:19.910Z,102330.63
2023-02-11T00:42:32.668Z,102336.88
2023-02-11T00:42:45.545Z,102333.31
2023-02-11T00:42:58.396Z,102331.56
2023-02-11T00:43:11.198Z,102329.78
2023-02-11T00:43:27.909Z,102336.03
2023-02-11T00:43:41.321Z,102328.91
2023-02-11T00:43:54.576Z,102330.66
2023-02-11T00:44:07.334Z,102329.84
2023-02-11T00:44:20.127Z,102322.72
2023-02-11T00:44:32.831Z,102332.47
2023-02-11T00:44:46.705Z,102326.31
2023-02-11T00:44:59.399Z,102323.66
2023-02-11T00:45:12.495Z,102324.50
2023-02-11T00:45:25.274Z,102321.88
2023-02-11T00:45:38.031Z,102324.47
2023-02-11T00:45:50.948Z,102318.31
2023-02-11T00:46:04.064Z,102321.84
2023-02-11T00:46:17.251Z,102322.69
2023-02-11T00:46:31.221Z,102315.69
2023-02-11T00:46:44.213Z,102315.59
2023-02-11T00:46:56.943Z,102312.13
2023-02-11T00:47:09.726Z,102315.72
2023-02-11T00:47:22.507Z,102312.19
2023-02-11T00:47:35.814Z,102313.91
2023-02-11T00:47:48.899Z,102301.53
2023-02-11T00:48:01.630Z,102304.94
2023-02-11T00:48:15.409Z,102304.00
2023-02-11T00:48:28.208Z,102309.31
2023-02-11T00:48:42.130Z,102308.47
2023-02-11T00:48:57.731Z,102303.16
2023-02-11T00:49:10.488Z,102300.59
2023-02-11T00:49:23.194Z,102299.72
2023-02-11T00:49:37.094Z,102297.06
2023-02-11T00:49:49.773Z,102297.06
2023-02-11T00:50:04.788Z,102298.00
2023-02-11T00:50:17.562Z,102294.41
2023-02-11T00:50:30.247Z,102290.00
2023-02-11T00:50:42.998Z,102288.38
2023-02-11T00:50:56.688Z,102292.69
2023-02-11T00:51:10.148Z,102297.13
2023-02-11T00:51:22.880Z,102298.00
2023-02-11T00:51:35.927Z,102296.22
2023-02-11T00:51:48.649Z,102289.13
2023-02-11T00:52:01.368Z,102285.75
2023-02-11T00:52:15.232Z,102289.09
2023-02-11T00:52:28.147Z,102288.25
2023-02-11T00:52:41.063Z,102287.41
2023-02-11T00:52:53.813Z,102273.22
2023-02-11T00:53:06.719Z,102269.81
2023-02-11T00:53:19.384Z,102278.63
2023-02-11T00:53:32.549Z,102274.28
2023-02-11T00:53:46.278Z,102276.00
2023-02-11T00:53:58.955Z,102272.47
2023-02-11T00:54:11.779Z,102274.28
2023-02-11T00:54:24.518Z,102265.41
2023-02-11T00:54:37.207Z,102267.19
2023-02-11T00:54:49.909Z,102274.19
2023-02-11T00:55:03.645Z,102256.75
2023-02-11T00:55:17.208Z,102269.72
2023-02-11T00:55:30.907Z,102267.94
2023-02-11T00:55:43.594Z,102262.69
2023-02-11T00:55:57.724Z,102260.06
2023-02-11T00:56:11.532Z,102261.78
2023-02-11T00:56:24.585Z,102243.56
2023-02-11T00:56:37.315Z,102260.94
2023-02-11T00:56:49.998Z,102263.59
2023-02-11T00:57:02.911Z,102260.09
2023-02-11T00:57:15.532Z,102269.81
2023-02-11T00:57:28.231Z,102258.47
2023-02-11T00:57:40.979Z,102262.69
2023-02-11T00:57:54.770Z,102266.22
2023-02-11T00:58:07.504Z,102260.09
2023-02-11T00:58:20.508Z,102263.63
2023-02-11T00:58:33.293Z,102268.00
2023-02-11T00:58:46.072Z,102270.66
2023-02-11T00:58:58.896Z,102268.03
2023-02-11T00:59:13.859Z,102267.19
2023-02-11T00:59:27.022Z,102271.53
2023-02-11T00:59:40.332Z,102268.91
2023-02-11T00:59:53.050Z,102265.41
2023-02-11T01:00:07.268Z,102270.56
2023-02-11T01:00:20.323Z,102270.66
2023-02-11T01:00:33.146Z,102268.84
2023-02-11T01:00:45.895Z,102270.66
2023-02-11T01:00:59.900Z,102276.94
2023-02-11T01:01:12.829Z,102274.22
2023-02-11T01:01:25.660Z,102281.31
2023-02-11T01:01:38.453Z,102272.66
2023-02-11T01:01:51.202Z,102282.16
2023-02-11T01:02:04.045Z,102279.50
2023-02-11T01:02:18.278Z,102276.84
2023-02-11T01:02:31.050Z,102279.53
2023-02-11T01:02:43.800Z,102281.25
2023-02-11T01:02:56.712Z,102278.66
2023-02-11T01:03:09.812Z,102279.59
2023-02-11T01:03:23.003Z,102288.38
2023-02-11T01:03:35.934Z,102281.31
2023-02-11T01:03:49.666Z,102285.50
2023-02-11T01:04:02.414Z,102285.50
2023-02-11T01:04:15.099Z,102275.69
2023-02-11T01:04:27.851Z,102273.06
2023-02-11T01:04:40.586Z,102281.94
2023-02-11T01:04:53.412Z,102280.22
2023-02-11T01:05:06.936Z,102263.69
2023-02-11T01:05:20.274Z,102276.69
2023-02-11T01:05:34.305Z,102278.50
2023-02-11T01:05:47.104Z,102276.78
2023-02-11T01:06:00.263Z,102268.03
2023-02-11T01:06:13.169Z,102271.50
2023-02-11T01:06:25.893Z,102273.22
2023-02-11T01:06:38.565Z,102274.16
2023-02-11T01:06:51.531Z,102270.66
2023-02-11T01:07:05.192Z,102276.81
2023-02-11T01:07:17.926Z,102273.28
2023-02-11T01:07:30.658Z,102278.59
2023-02-11T01:07:43.372Z,102273.34
2023-02-11T01:07:56.114Z,102277.66
2023-02-11T01:08:08.885Z,102273.22
2023-02-11T01:08:21.574Z,102277.63
2023-02-11T01:08:35.541Z,102278.63
2023-02-11T01:08:48.246Z,102282.06
2023-02-11T01:09:01.107Z,102275.00
2023-02-11T01:09:13.786Z,102277.66
2023-02-11T01:09:26.509Z,102291.75
2023-02-11T01:09:39.253Z,102284.75
2023-02-11T01:09:52.102Z,102285.63
2023-02-11T01:10:05.148Z,102289.13
2023-02-11T01:10:19.265Z,102288.25
2023-02-11T01:10:32.653Z,102294.47
2023-02-11T01:10:45.734Z,102285.63
2023-02-11T01:11:01.909Z,102290.94
2023-02-11T01:11:16.611Z,102277.69
2023-02-11T01:11:29.442Z,102279.50
2023-02-11T01:11:43.220Z,102279.50
2023-02-11T01:11:55.947Z,102277.78
2023-02-11T01:12:08.649Z,102268.06
2023-02-11T01:12:21.591Z,102263.00
2023-02-11T01:12:36.476Z,102272.50
2023-02-11T01:12:49.349Z,102269.00
2023-02-11T01:13:02.557Z,102271.66
2023-02-11T01:13:16.234Z,102268.94
2023-02-11T01:13:31.230Z,102275.97
2023-02-11T01:13:44.245Z,102268.03
2023-02-11T01:13:57.128Z,102269.75
2023-02-11T01:14:10.358Z,102279.50
2023-02-11T01:14:24.075Z,102268.91
2023-02-11T01:14:37.142Z,102274.22
2023-02-11T01:14:49.871Z,102274.19
2023-02-11T01:15:02.670Z,102275.06
2023-02-11T01:15:16.913Z,102278.59
2023-02-11T01:15:29.963Z,102273.34
2023-02-11T01:15:42.714Z,102277.78
2023-02-11T01:15:57.444Z,102277.78
2023-02-11T01:16:11.844Z,102268.03
2023-02-11T01:16:24.828Z,102275.00
2023-02-11T01:16:37.609Z,102256.59
2023-02-11T01:16:50.332Z,102271.50
2023-02-11T01:17:05.725Z,102261.78
2023-02-11T01:17:18.520Z,102254.78
2023-02-11T01:17:31.267Z,102260.06
2023-02-11T01:17:45.251Z,102258.31
2023-02-11T01:17:58.042Z,102250.38
2023-02-11T01:18:10.753Z,102255.66
2023-02-11T01:18:23.583Z,102253.00
2023-02-11T01:18:37.318Z,102245.97
2023-02-11T01:18:50.104Z,102245.97
2023-02-11T01:19:03.890Z,102246.84
2023-02-11T01:19:16.677Z,102231.03
2023-02-11T01:19:29.383Z,102230.00
2023-02-11T01:19:42.573Z,102233.56
2023-02-11T01:19:55.345Z,102223.16
2023-02-11T01:20:13.954Z,102230.91
2023-02-11T01:20:28.561Z,102246.81
2023-02-11T01:20:42.340Z,102232.78
2023-02-11T01:20:55.210Z,102237.13
2023-02-11T01:21:07.926Z,102237.97
2023-02-11T01:21:20.839Z,102239.75
2023-02-11T01:21:33.685Z,102239.75
2023-02-11T01:21:47.435Z,102241.50
2023-02-11T01:22:00.165Z,102237.13
2023-02-11T01:22:12.902Z,102237.97
2023-02-11T01:22:25.932Z,102246.84
2023-02-11T01:22:39.642Z,102247.72
2023-02-11T01:22:52.362Z,102249.38
2023-02-11T01:23:05.323Z,102248.53
2023-02-11T01:23:18.223Z,102240.59
2023-02-11T01:23:32.292Z,102242.34
2023-02-11T01:23:45.176Z,102240.59
2023-02-11T01:23:57.881Z,102237.03
2023-02-11T01:24:10.672Z,102243.19
2023-02-11T01:24:23.359Z,102243.19
2023-02-11T01:24:36.309Z,102243.19
2023-02-11T01:24:49.035Z,102241.50
2023-02-11T01:25:02.734Z,102236.22
2023-02-11T01:25:15.683Z,102239.72
2023-02-11T01:25:28.362Z,102234.47
2023-02-11T01:25:41.093Z,102240.59
2023-02-11T01:25:54.481Z,102251.19
2023-02-11T01:26:08.599Z,102237.97
2023-02-11T01:26:21.638Z,102250.34
2023-02-11T01:26:35.362Z,102231.03
2023-02-11T01:26:48.049Z,102230.97
2023-02-11T01:27:01.184Z,102238.88
2023-02-11T01:27:14.121Z,102237.13
2023-02-11T01:27:26.945Z,102232.81
2023-02-11T01:27:41.017Z,102238.88
2023-02-11T01:27:53.708Z,102237.94
2023-02-11T01:28:11.565Z,102237.97
2023-02-11T01:28:26.461Z,102234.44
2023-02-11T01:28:39.242Z,102232.63
2023-02-11T01:28:52.999Z,102240.59
2023-02-11T01:29:05.908Z,102235.28
2023-02-11T01:29:18.565Z,102232.59
2023-02-11T01:29:31.309Z,102234.38
2023-02-11T01:29:43.971Z,102242.34
2023-02-11T01:29:56.910Z,102226.44
2023-02-11T01:30:12.616Z,102223.72
2023-02-11T01:30:26.470Z,102227.22
2023-02-11T01:30:39.769Z,102227.31
2023-02-11T01:30:53.774Z,102221.16
2023-02-11T01:31:07.748Z,102222.00
2023-02-11T01:31:20.616Z,102209.81
2023-02-11T01:31:33.499Z,102223.72
2023-02-11T01:31:47.442Z,102219.28
2023-02-11T01:32:01.080Z,102221.16
2023-02-11T01:32:13.970Z,102225.47
2023-02-11T01:32:26.839Z,102217.53
2023-02-11T01:32:40.138Z,102215.78
2023-02-11T01:32:52.902Z,102208.84
2023-02-11T01:33:05.592Z,102214.00
2023-02-11T01:33:19.498Z,102210.56
2023-02-11T01:33:32.360Z,102213.13
2023-02-11T01:33:45.121Z,102214.09
2023-02-11T01:33:58.128Z,102208.69
2023-02-11T01:34:10.844Z,102203.59
2023-02-11T01:34:23.734Z,102215.84
2023-02-11T01:34:37.434Z,102210.56
2023-02-11T01:34:50.189Z,102210.56
2023-02-11T01:35:02.912Z,102209.66
2023-02-11T01:35:15.656Z,102214.13
2023-02-11T01:35:28.390Z,102215.03
2023-02-11T01:35:41.643Z,102220.25
2023-02-11T01:36:00.896Z,102218.50
2023-02-11T01:36:13.873Z,102215.84
2023-02-11T01:36:27.616Z,102218.38
2023-02-11T01:36:40.631Z,102210.56
2023-02-11T01:36:57.994Z,102213.09
2023-02-11T01:37:10.810Z,102219.28
2023-02-11T01:37:23.816Z,102219.22
2023-02-11T01:37:37.105Z,102220.94
2023-02-11T01:37:49.776Z,102219.28
2023-02-11T01:38:02.725Z,102215.72
2023-02-11T01:38:18.532Z,102222.75
2023-02-11T01:38:32.189Z,102207.00
2023-02-11T01:38:45.669Z,102221.88
2023-02-11T01:38:58.636Z,102222.69
2023-02-11T01:39:11.345Z,102221.81
2023-02-11T01:39:24.175Z,102221.00
2023-02-11T01:39:38.216Z,102222.72
2023-02-11T01:39:50.963Z,102217.69
2023-02-11T01:40:05.184Z,102221.88
2023-02-11T01:40:18.466Z,102205.31
2023-02-11T01:40:31.213Z,102210.56
2023-02-11T01:40:48.255Z,102220.09
2023-02-11T01:41:03.546Z,102211.25
2023-02-11T01:41:18.729Z,102219.28
2023-02-11T01:41:31.440Z,102213.91
2023-02-11T01:41:44.456Z,102217.28
2023-02-11T01:41:57.307Z,102223.53
2023-02-11T01:42:15.656Z,102203.47
2023-02-11T01:42:28.805Z,102213.81
2023-02-11T01:42:41.820Z,102220.94
2023-02-11T01:42:55.503Z,102203.28
2023-02-11T01:43:11.798Z,102205.00
2023-02-11T01:43:26.210Z,102208.50
2023-02-11T01:43:42.610Z,102213.81
2023-02-11T01:43:56.348Z,102203.31
2023-02-11T01:44:29.213Z,102208.63
2023-02-11T01:44:42.003Z,102198.19
2023-02-11T01:44:55.727Z,102192.00
2023-02-11T01:45:43.515Z,102201.56
2023-02-11T01:46:06.445Z,102198.09
2023-02-11T01:46:32.115Z,102195.44
2023-02-11T01:46:45.138Z,102193.00
2023-02-11T01:46:57.963Z,102201.56
2023-02-11T01:47:10.970Z,102200.72
2023-02-11T01:47:24.704Z,102201.63
2023-02-11T01:47:37.416Z,102204.28
2023-02-11T01:47:50.111Z,102196.34
2023-02-11T01:48:02.782Z,102193.88
2023-02-11T01:48:20.456Z,102198.09
2023-02-11T01:48:36.371Z,102201.56
2023-02-11T01:48:54.313Z,102187.66
2023-02-11T01:49:11.723Z,102193.78
2023-02-11T01:49:28.739Z,102198.03
2023-02-11T01:49:44.769Z,102193.63
2023-02-11T01:50:02.799Z,102190.13
2023-02-11T01:50:15.634Z,102190.13
2023-02-11T01:50:28.436Z,102195.44
2023-02-11T01:50:43.173Z,102192.81
2023-02-11T01:51:01.950Z,102193.53
2023-02-11T01:51:21.630Z,102186.56
2023-02-11T01:51:39.195Z,102180.38
2023-02-11T01:51:56.803Z,102181.31
2023-02-11T01:52:13.280Z,102181.34
2023-02-11T01:52:31.279Z,102174.34
2023-02-11T01:52:46.382Z,102188.41
2023-02-11T01:53:19.224Z,102180.50
2023-02-11T01:53:48.882Z,102174.19
2023-02-11T01:54:22.076Z,102175.97
2023-02-11T01:54:56.898Z,102176.00
2023-02-11T01:55:28.927Z,102180.50
2023-02-11T01:56:02.328Z,102175.19
2023-02-11T01:56:37.569Z,102178.78
2023-02-11T01:57:11.863Z,102175.19
2023-02-11T01:57:28.270Z,102180.53
2023-02-11T01:57:45.527Z,102173.47
2023-02-11T01:58:00.959Z,102178.78
2023-02-11T01:58:13.672Z,102178.78
2023-02-11T01:58:28.311Z,102181.34
2023-02-11T01:58:43.978Z,102175.22
2023-02-11T01:59:03.407Z,102177.88
2023-02-11T01:59:20.340Z,102173.47
2023-02-11T01:59:39.620Z,102177.03
2023-02-11T02:00:00.269Z,102182.31
2023-02-11T02:00:17.379Z,102177.94
2023-02-11T02:00:36.534Z,102175.28
2023-02-11T02:00:50.036Z,102177.06
2023-02-11T02:01:06.594Z,102171.72
2023-02-11T02:01:25.704Z,102172.72
2023-02-11T02:01:42.526Z,102174.38
2023-02-11T02:02:01.173Z,102173.50
2023-02-11T02:02:17.702Z,102170.00
2023-02-11T02:02:38.766Z,102167.38
2023-02-11T02:02:57.243Z,102162.94
2023-02-11T02:03:14.429Z,102166.44
2023-02-11T02:03:28.124Z,102166.44
2023-02-11T02:03:44.117Z,102169.94
2023-02-11T02:04:01.126Z,102163.88
2023-02-11T02:04:17.994Z,102158.47
2023-02-11T02:04:39.902Z,102165.53
2023-02-11T02:04:59.232Z,102162.94
2023-02-11T02:05:23.536Z,102157.66
2023-02-11T02:05:40.684Z,102166.53
2023-02-11T02:05:58.019Z,102159.50
2023-02-11T02:06:16.898Z,102159.50
2023-02-11T02:06:35.139Z,102160.41
2023-02-11T02:06:56.275Z,102147.25
2023-02-11T02:07:14.542Z,102158.50
2023-02-11T02:07:33.799Z,102152.34
2023-02-11T02:07:54.397Z,102160.31
2023-02-11T02:08:14.598Z,102143.59
2023-02-11T02:08:32.911Z,102152.41
2023-02-11T02:08:52.595Z,102139.41
2023-02-11T02:09:10.060Z,102145.50
2023-02-11T02:09:29.388Z,102140.94
2023-02-11T02:09:49.607Z,102153.34
2023-02-11T02:10:09.742Z,102156.00
2023-02-11T02:10:26.047Z,102156.88
2023-02-11T02:10:43.533Z,102155.94
2023-02-11T02:10:58.523Z,102152.31
2023-02-11T02:11:11.690Z,102154.03
2023-02-11T02:11:26.383Z,102160.22
2023-02-11T02:11:39.095Z,102148.81
2023-02-11T02:11:51.850Z,102160.31
2023-02-11T02:12:04.783Z,102162.09
2023-02-11T02:12:18.453Z,102169.19
2023-02-11T02:12:31.169Z,102159.50
2023-02-11T02:12:43.954Z,102166.56
2023-02-11T02:12:56.842Z,102165.72
2023-02-11T02:13:09.893Z,102171.91
2023-02-11T02:13:23.130Z,102157.84
2023-02-11T02:13:37.387Z,102166.59
2023-02-11T02:13:50.160Z,102166.69
2023-02-11T02:14:03.048Z,102171.97
2023-02-11T02:14:15.850Z,102167.47
2023-02-11T02:14:29.006Z,102162.13
2023-02-11T02:14:42.443Z,102165.59
2023-02-11T02:15:24.160Z,102167.38
2023-02-11T02:15:39.702Z,102169.22
2023-02-11T02:15:54.341Z,102172.72
2023-02-11T02:16:12.839Z,102174.50
2023-02-11T02:16:32.203Z,102175.38
2023-02-11T02:16:45.637Z,102176.31
2023-02-11T02:16:58.486Z,102176.31
2023-02-11T02:17:22.803Z,102172.72
2023-02-11T02:17:45.084Z,102171.91
2023-02-11T02:18:02.806Z,102168.34
2023-02-11T02:18:41.214Z,102162.25
2023-02-11T02:19:10.405Z,102163.13
2023-02-11T02:19:58.253Z,102157.84
2023-02-11T02:21:13.595Z,102156.97
2023-02-11T02:22:00.093Z,102153.44
2023-02-11T02:22:51.298Z,102156.13
2023-02-11T02:23:25.150Z,102150.88
2023-02-11T02:24:15.178Z,102151.78
2023-02-11T02:24:47.132Z,102149.19
2023-02-11T02:25:19.941Z,102147.34
2023-02-11T02:26:00.523Z,102141.13
2023-02-11T02:26:48.215Z,102134.19
2023-02-11T02:27:37.326Z,102141.13
2023-02-11T02:27:58.911Z,102144.72
2023-02-11T02:28:32.779Z,102139.41
2023-02-11T02:29:21.176Z,102142.91
2023-02-11T02:30:01.658Z,102135.84
2023-02-11T02:30:39.138Z,102146.44
2023-02-11T02:31:12.830Z,102137.66
2023-02-11T02:31:47.251Z,102131.47
2023-02-11T02:32:27.482Z,102134.94
2023-02-11T02:32:51.028Z,102127.00
2023-02-11T02:33:22.937Z,102120.97
2023-02-11T02:33:47.397Z,102125.22
2023-02-11T02:34:06.808Z,102125.31
2023-02-11T02:34:27.451Z,102121.69
2023-02-11T02:34:49.044Z,102119.06
2023-02-11T02:35:10.967Z,102120.88
2023-02-11T02:35:35.476Z,102115.59
2023-02-11T02:35:56.121Z,102111.34
2023-02-11T02:36:15.158Z,102115.59
2023-02-11T02:36:34.605Z,102112.94
2023-02-11T02:36:56.493Z,102105.84
2023-02-11T02:37:16.179Z,102101.63
2023-02-11T02:37:34.870Z,102109.34
2023-02-11T02:37:52.077Z,102115.59
2023-02-11T02:38:12.088Z,102105.00
2023-02-11T02:38:32.280Z,102101.41
2023-02-11T02:38:53.370Z,102101.41
2023-02-11T02:39:10.189Z,102104.13
2023-02-11T02:39:28.281Z,102099.78
2023-02-11T02:39:42.181Z,102093.63
2023-02-11T02:39:57.754Z,102097.09
2023-02-11T02:40:18.506Z,102093.53
2023-02-11T02:40:35.406Z,102096.19
2023-02-11T02:40:51.920Z,102083.09
2023-02-11T02:41:08.846Z,102094.47
2023-02-11T02:41:28.144Z,102080.56
2023-02-11T02:41:42.486Z,102091.81
2023-02-11T02:41:57.158Z,102085.75
2023-02-11T02:42:10.557Z,102089.25
2023-02-11T02:42:24.861Z,102086.59
2023-02-11T02:42:40.730Z,102073.53
2023-02-11T02:42:55.148Z,102086.41
2023-02-11T02:43:10.133Z,102089.97
2023-02-11T02:43:26.992Z,102087.34
2023-02-11T02:43:42.834Z,102082.00
2023-02-11T02:43:55.710Z,102087.34
2023-02-11T02:44:09.300Z,102083.88
2023-02-11T02:44:22.447Z,102082.13
2023-02-11T02:44:35.219Z,102082.22
2023-02-11T02:44:49.536Z,102089.28
2023-02-11T02:45:02.398Z,102078.69
2023-02-11T02:45:16.661Z,102086.59
2023-02-11T02:45:29.405Z,102086.59
2023-02-11T02:45:42.185Z,102086.66
2023-02-11T02:45:55.180Z,102085.75
2023-02-11T02:46:14.254Z,102088.44
2023-02-11T02:46:29.501Z,102089.28
2023-02-11T02:46:42.502Z,102091.91
2023-02-11T02:46:56.368Z,102090.22
2023-02-11T02:47:09.117Z,102098.97
2023-02-11T02:47:23.236Z,102091.91
2023-02-11T02:47:35.953Z,102097.19
2023-02-11T02:47:48.745Z,102093.69
2023-02-11T02:48:01.460Z,102080.44
2023-02-11T02:48:26.124Z,102087.56
2023-02-11T02:48:40.035Z,102084.03
2023-02-11T02:48:54.091Z,102090.16
2023-02-11T02:49:12.587Z,102089.28
2023-02-11T02:49:25.339Z,102082.28
2023-02-11T02:49:38.033Z,102085.81
2023-02-11T02:49:50.755Z,102092.88
2023-02-11T02:50:04.037Z,102095.56
2023-02-11T02:50:25.015Z,102088.63
2023-02-11T02:50:38.484Z,102091.94
2023-02-11T02:51:01.007Z,102092.88
2023-02-11T02:51:39.794Z,102077.06
2023-02-11T02:52:17.226Z,102085.75
2023-02-11T02:52:35.738Z,102085.78
2023-02-11T02:52:56.320Z,102088.41
2023-02-11T02:53:24.255Z,102094.59
2023-02-11T02:53:44.760Z,102099.91
2023-02-11T02:54:12.152Z,102102.50
2023-02-11T02:54:56.867Z,102097.34
2023-02-11T02:55:21.960Z,102086.00
2023-02-11T02:55:53.844Z,102107.00
2023-02-11T02:56:13.374Z,102097.19
2023-02-11T02:56:37.091Z,102102.50
2023-02-11T02:56:55.496Z,102101.63
2023-02-11T02:57:21.275Z,102099.78
2023-02-11T02:57:46.252Z,102090.25
2023-02-11T02:58:14.609Z,102093.63
2023-02-11T02:58:53.824Z,102102.50
2023-02-11T02:59:33.192Z,102100.75
2023-02-11T03:00:02.060Z,102090.13
2023-02-11T03:00:24.180Z,102093.63
2023-02-11T03:00:45.271Z,102078.75
2023-02-11T03:01:03.957Z,102091.81
2023-02-11T03:01:27.922Z,102098.91